WetterOnline ( http://www.wetteronline.at )

Wetter aktuell Pforzheim

Aktuelles Wetter: Mühlacker (245m)

6-stündlich | Neueste Meldungen
Ortszeit Temperatur Wetter
Mo, 18.06. 14:00 22.7° C leicht bewölkt
Mo, 18.06. 8:00 16.5° C bedeckt
Mo, 18.06. 2:00 14.5° C bedeckt
So, 17.06. 20:00 20.4° C wolkig
So, 17.06. 14:00 22.6° C bewölkt
So, 17.06. 8:00 17.3° C bewölkt
So, 17.06. 2:00 13.8° C leicht bewölkt
Sa, 16.06. 20:00 23.6° C bedeckt
Ortszeit Temperatur Wetter
Mo, 18.06. 19:10 22.2° C wolkenlos
Mo, 18.06. 19:00 21.9° C wolkenlos
Mo, 18.06. 18:50 21.9° C wolkenlos
Mo, 18.06. 18:40 22.8° C wolkenlos
Mo, 18.06. 18:30 22.4° C leicht bewölkt
Mo, 18.06. 18:20 22.4° C leicht bewölkt
Mo, 18.06. 18:00 22.6° C fast wolkenlos
Mo, 18.06. 17:30 23.2° C fast wolkenlos
Mo, 18.06. 17:00 23.1° C fast wolkenlos
Mo, 18.06. 16:30 23.0° C fast wolkenlos
Mo, 18.06. 16:00 23.8° C wolkenlos
Ortszeit Relative Feuchte Sichtweite
Mo, 18.06. 14:00 46% 30 km
Mo, 18.06. 8:00 75% 40 km
Mo, 18.06. 2:00 90% 30 km
So, 17.06. 20:00 56% 50 km
So, 17.06. 14:00 48% 40 km
So, 17.06. 8:00 75% 40 km
So, 17.06. 2:00 92% 15 km
Sa, 16.06. 20:00 61% 40 km
Ortszeit Relative Feuchte Sichtweite
Mo, 18.06. 19:10 54% -
Mo, 18.06. 19:00 54% 50 km
Mo, 18.06. 18:50 54% -
Mo, 18.06. 18:40 52% -
Mo, 18.06. 18:30 50% 27 km
Mo, 18.06. 18:20 50% -
Mo, 18.06. 18:00 49% 30 km
Mo, 18.06. 17:30 48% 26 km
Mo, 18.06. 17:00 46% 35 km
Mo, 18.06. 16:30 45% 45 km
Mo, 18.06. 16:00 44% 29 km
Ortszeit Niederschlagsmenge Niederschlagsart
Mo, 18.06. 14:00 0.0 l/m2 in 6 Std. -
Mo, 18.06. 8:00 0.0 l/m2 in 12 Std. -
Mo, 18.06. 2:00 0.0 l/m2 in 6 Std. -
So, 17.06. 20:00 0.0 l/m2 in 12 Std. -
So, 17.06. 14:00 0.0 l/m2 in 6 Std. -
So, 17.06. 8:00 0.1 l/m2 in 12 Std. Regen
So, 17.06. 2:00 0.0 l/m2 in 6 Std. -
Sa, 16.06. 20:00 0.1 l/m2 in 12 Std. -
Ortszeit Niederschlagsmenge Niederschlagsart
Mo, 18.06. 19:10 keine Meldung -
Mo, 18.06. 19:00 0.0 l/m2 in 1 Std. -
Mo, 18.06. 18:50 keine Meldung -
Mo, 18.06. 18:40 keine Meldung -
Mo, 18.06. 18:30 0.0 l/m2 in 1 Std. -
Mo, 18.06. 18:20 keine Meldung -
Mo, 18.06. 18:00 0.0 l/m2 in 1 Std. -
Mo, 18.06. 17:30 0.0 l/m2 in 1 Std. -
Mo, 18.06. 17:00 0.0 l/m2 in 1 Std. -
Mo, 18.06. 16:30 0.0 l/m2 in 1 Std. -
Mo, 18.06. 16:00 0.0 l/m2 in 1 Std. -
Ortszeit Stärke Spitze Richtung
km/h Bft. km/h Grad Sektor
Mo, 18.06. 14:00 13 3 31 250° W
Mo, 18.06. 8:00 4 1 7 230° SW
Mo, 18.06. 2:00 0 0 22 - -
So, 17.06. 20:00 14 3 29 290° W
So, 17.06. 14:00 13 3 24 260° W
So, 17.06. 8:00 9 2 22 290° W
So, 17.06. 2:00 2 1 9 20° N
Sa, 16.06. 20:00 4 1 14 340° N
Ortszeit Stärke Spitze Richtung
km/h Bft. km/h Grad Sektor
Mo, 18.06. 19:10 14 3 - 300° NW
Mo, 18.06. 19:00 11 2 25 310° NW
Mo, 18.06. 18:50 11 2 - 310° NW
Mo, 18.06. 18:40 14 3 - 300° NW
Mo, 18.06. 18:30 14 3 25 300° NW
Mo, 18.06. 18:20 14 3 - 300° NW
Mo, 18.06. 18:00 15 3 31 290° W
Mo, 18.06. 17:30 19 3 31 300° NW
Mo, 18.06. 17:00 18 3 32 290° W
Mo, 18.06. 16:30 15 3 31 270° W
Mo, 18.06. 16:00 17 3 31 300° NW
Ortszeit Untergrenze Bedeckung Gattung
total tief tief mittel hoch
Mo, 18.06. 14:00 1470 m 2/8 2/8 - - -
Mo, 18.06. 8:00 3000 m 8/8 8/8 - - -
Mo, 18.06. 2:00 3000 m 8/8 8/8 - - -
So, 17.06. 20:00 1380 m 8/8 1/8 - - -
So, 17.06. 14:00 1800 m 7/8 6/8 - - -
So, 17.06. 8:00 3000 m 7/8 7/8 - - -
So, 17.06. 2:00 3300 m 2/8 2/8 - - -
Sa, 16.06. 20:00 2100 m 8/8 8/8 - - -
Ortszeit Bedeckungsgrad in Achtel und Wolkenuntergrenze
Mo, 18.06. 19:10 keine Wolken
Mo, 18.06. 19:00 keine Wolken
Mo, 18.06. 18:50 keine Wolken
Mo, 18.06. 18:40 keine Wolken
Mo, 18.06. 18:30 2(1440m)
Mo, 18.06. 18:20 2(1440m)
Mo, 18.06. 18:00 1(1350m) 9 9
Mo, 18.06. 17:30 1(10500m)
Mo, 18.06. 17:00 1(10500m)
Mo, 18.06. 16:30 1(10500m)
Mo, 18.06. 16:00 keine Wolken
Ortszeit Luftdruck NN (hPa) Tendenz (hPa in 3 Std.)
Mo, 18.06. 14:00 1022 - 0,3
Mo, 18.06. 8:00 1023 + 0,7
Mo, 18.06. 2:00 1022 + 1,0
So, 17.06. 20:00 1019 + 0,6
So, 17.06. 14:00 1018 0,0
So, 17.06. 8:00 1018 + 1,3
So, 17.06. 2:00 1017 + 0,8
Sa, 16.06. 20:00 1014 - 0,1
Ortszeit Luftdruck NN (hPa) Tendenz (hPa in 3 Std.)
Mo, 18.06. 19:10 1022 keine Meldung
Mo, 18.06. 19:00 1022 0,0
Mo, 18.06. 18:50 1022 keine Meldung
Mo, 18.06. 18:40 1022 keine Meldung
Mo, 18.06. 18:30 1022 - 0,2
Mo, 18.06. 18:20 1022 keine Meldung
Mo, 18.06. 18:00 1022 - 0,1
Mo, 18.06. 17:30 1022 - 0,2
Mo, 18.06. 17:00 1022 - 0,5
Mo, 18.06. 16:30 1022 - 0,5
Mo, 18.06. 16:00 1022 - 0,3
Ortszeit Schneehöhe (cm)
Mo, 18.06. 14:00 -
Mo, 18.06. 8:00 -
Mo, 18.06. 2:00 -
So, 17.06. 20:00 -
So, 17.06. 14:00 -
So, 17.06. 8:00 -
So, 17.06. 2:00 -
Sa, 16.06. 20:00 -
Ortszeit Schneehöhe (cm)
Mo, 18.06. 19:10 -
Mo, 18.06. 19:00 -
Mo, 18.06. 18:50 -
Mo, 18.06. 18:40 -
Mo, 18.06. 18:30 -
Mo, 18.06. 18:20 -
Mo, 18.06. 18:00 -
Mo, 18.06. 17:30 -
Mo, 18.06. 17:00 -
Mo, 18.06. 16:30 -
Mo, 18.06. 16:00 -
Link zu dieser Seite / Seite empfehlen

Das Wetter in ...